Kezdőlap
METAR-TAF:

METAR-TAF

Repülőterek :

Scarborough, Tobago, Trinidad és Tobago

földrajzi szélesség: 11-09N, földrajzi hosszúság: 060-51W, magasság: 8 m

Jelenlegi meteorológiai megfigyelések

A jelentés 44 perccel ezelõtt készült, 03:00 UTC
Kelet-északkeleti szél 6 kt
Hőmérséklet 28°C
Páratartalom 79%
Légköri nyomás 1014 hPa
Látótávolság 10 km, vagy több
Kevés felhő 1600 lábon

METAR: TTCP 130300Z 06006KT 9999 FEW016 28/24 Q1014 NOSIG

Idő: 23:44 (03:44 UTC)

Előrejelzés

A jelentés 5 órával és 44 perccel ezelõtt készült, 22:00 UTC
Az előrejelzés 13-én 00 óra UTC és 13-én 24 óra UTC között érvényes
Keleti szél 10 kt
Látótávolság 10 km, vagy több
Kevés felhő 1600 lábon
13-én 12 óra UTC és 13-én 14 óra UTC között fokozatosan kialakuló
Kelet-délkeleti szél 15 kt széllökések: 25 kt
Szórványos felhőzet 2200 lábon

TAF: TTCP 122200Z 1300/1324 08010KT 9999 FEW016 BECMG 1312/1314 11015G25KT SCT022

Meteorológiai megfigyelések és előrejelzések több, mint 4000 repülőtéren (METAR és TAF jelentéseket).

A térképen piros és sárga pontok jelzik az elérhető meteorológiai állomásokat.

Mozgassa az egeret a pont fölött, hogy megjelenjen az állomás neve.

Azután kattintson az időjárási megfigyelések és előrejelzések megtekintéséhez.

A térkép megváltoztatása: kattintson a fekete keresztel jelölt zöld gombra ráközelítéshez, a vonallal jelölt zöld gombra távolításhoz, vagy a zöld nyilakra a szomszédos térképek eléréséhez.


METAR-TAF: